sensor_id;sensor_type;location;lat;lon;timestamp;temperature;humidity
68189;DHT22;66299;47.514;19.218;2023-09-19T00:00:22;22.02;72.23
68189;DHT22;66299;47.514;19.218;2023-09-19T00:02:54;22.02;72.27
68189;DHT22;66299;47.514;19.218;2023-09-19T00:05:29;21.97;72.68
68189;DHT22;66299;47.514;19.218;2023-09-19T00:07:59;21.93;72.84
68189;DHT22;66299;47.514;19.218;2023-09-19T00:10:33;22.00;72.59
68189;DHT22;66299;47.514;19.218;2023-09-19T00:13:03;21.96;72.56
68189;DHT22;66299;47.514;19.218;2023-09-19T00:15:37;21.97;72.64
68189;DHT22;66299;47.514;19.218;2023-09-19T00:18:06;21.93;72.79
68189;DHT22;66299;47.514;19.218;2023-09-19T00:20:37;21.90;72.86
68189;DHT22;66299;47.514;19.218;2023-09-19T00:23:06;21.84;73.08
68189;DHT22;66299;47.514;19.218;2023-09-19T00:25:40;21.84;73.16
68189;DHT22;66299;47.514;19.218;2023-09-19T00:28:10;21.83;73.12
68189;DHT22;66299;47.514;19.218;2023-09-19T00:30:42;21.78;73.38
68189;DHT22;66299;47.514;19.218;2023-09-19T00:33:12;21.71;73.57
68189;DHT22;66299;47.514;19.218;2023-09-19T00:35:48;21.70;73.82
68189;DHT22;66299;47.514;19.218;2023-09-19T00:38:16;21.61;74.08
68189;DHT22;66299;47.514;19.218;2023-09-19T00:40:53;21.56;74.10
68189;DHT22;66299;47.514;19.218;2023-09-19T00:43:27;21.60;74.07
68189;DHT22;66299;47.514;19.218;2023-09-19T00:45:58;21.56;74.27
68189;DHT22;66299;47.514;19.218;2023-09-19T00:48:32;21.50;74.44
68189;DHT22;66299;47.514;19.218;2023-09-19T00:51:08;21.49;74.57
68189;DHT22;66299;47.514;19.218;2023-09-19T00:53:38;21.49;74.59
68189;DHT22;66299;47.514;19.218;2023-09-19T00:56:10;21.50;74.70
68189;DHT22;66299;47.514;19.218;2023-09-19T00:58:39;21.47;74.78
68189;DHT22;66299;47.514;19.218;2023-09-19T01:01:09;21.47;74.93
68189;DHT22;66299;47.514;19.218;2023-09-19T01:03:39;21.45;74.93
68189;DHT22;66299;47.514;19.218;2023-09-19T01:06:10;21.36;75.19
68189;DHT22;66299;47.514;19.218;2023-09-19T01:08:40;21.35;75.53
68189;DHT22;66299;47.514;19.218;2023-09-19T01:11:14;21.33;75.58
68189;DHT22;66299;47.514;19.218;2023-09-19T01:13:54;21.32;75.68
68189;DHT22;66299;47.514;19.218;2023-09-19T01:16:32;21.28;75.85
68189;DHT22;66299;47.514;19.218;2023-09-19T01:19:24;21.29;76.00
68189;DHT22;66299;47.514;19.218;2023-09-19T01:21:59;21.28;76.10
68189;DHT22;66299;47.514;19.218;2023-09-19T01:28:06;21.26;76.35
68189;DHT22;66299;47.514;19.218;2023-09-19T01:30:46;21.21;76.57
68189;DHT22;66299;47.514;19.218;2023-09-19T01:33:18;21.19;76.59
68189;DHT22;66299;47.514;19.218;2023-09-19T01:35:47;21.16;76.67
68189;DHT22;66299;47.514;19.218;2023-09-19T01:38:18;21.13;76.98
68189;DHT22;66299;47.514;19.218;2023-09-19T01:40:57;21.12;76.95
68189;DHT22;66299;47.514;19.218;2023-09-19T01:43:33;21.12;77.05
68189;DHT22;66299;47.514;19.218;2023-09-19T01:46:10;21.09;77.32
68189;DHT22;66299;47.514;19.218;2023-09-19T01:48:43;21.03;77.51
68189;DHT22;66299;47.514;19.218;2023-09-19T01:51:20;21.05;77.45
68189;DHT22;66299;47.514;19.218;2023-09-19T01:53:56;20.98;77.77
68189;DHT22;66299;47.514;19.218;2023-09-19T01:56:34;20.94;77.90
68189;DHT22;66299;47.514;19.218;2023-09-19T01:59:10;20.88;78.01
68189;DHT22;66299;47.514;19.218;2023-09-19T02:01:45;20.81;78.39
68189;DHT22;66299;47.514;19.218;2023-09-19T02:04:16;20.75;78.74
68189;DHT22;66299;47.514;19.218;2023-09-19T02:06:46;20.74;78.85
68189;DHT22;66299;47.514;19.218;2023-09-19T02:09:15;20.65;79.00
68189;DHT22;66299;47.514;19.218;2023-09-19T02:11:43;20.64;79.29
68189;DHT22;66299;47.514;19.218;2023-09-19T02:14:15;20.64;79.19
68189;DHT22;66299;47.514;19.218;2023-09-19T02:16:49;20.55;79.47
68189;DHT22;66299;47.514;19.218;2023-09-19T02:19:18;20.53;79.75
68189;DHT22;66299;47.514;19.218;2023-09-19T02:21:48;20.57;79.41
68189;DHT22;66299;47.514;19.218;2023-09-19T02:24:16;20.58;79.61
68189;DHT22;66299;47.514;19.218;2023-09-19T02:26:46;20.54;79.84
68189;DHT22;66299;47.514;19.218;2023-09-19T02:29:15;20.50;79.85
68189;DHT22;66299;47.514;19.218;2023-09-19T02:31:45;20.50;79.94
68189;DHT22;66299;47.514;19.218;2023-09-19T02:34:16;20.48;80.07
68189;DHT22;66299;47.514;19.218;2023-09-19T02:36:46;20.47;80.09
68189;DHT22;66299;47.514;19.218;2023-09-19T02:39:19;20.41;80.40
68189;DHT22;66299;47.514;19.218;2023-09-19T02:41:48;20.41;80.64
68189;DHT22;66299;47.514;19.218;2023-09-19T02:44:16;20.30;81.12
68189;DHT22;66299;47.514;19.218;2023-09-19T02:46:47;20.36;80.78
68189;DHT22;66299;47.514;19.218;2023-09-19T02:49:19;20.41;80.58
68189;DHT22;66299;47.514;19.218;2023-09-19T02:51:48;20.50;80.47
68189;DHT22;66299;47.514;19.218;2023-09-19T02:54:18;20.41;80.70
68189;DHT22;66299;47.514;19.218;2023-09-19T02:56:49;20.47;80.47
68189;DHT22;66299;47.514;19.218;2023-09-19T02:59:18;20.51;80.49
68189;DHT22;66299;47.514;19.218;2023-09-19T03:01:48;20.54;80.06
68189;DHT22;66299;47.514;19.218;2023-09-19T03:04:18;20.51;80.38
68189;DHT22;66299;47.514;19.218;2023-09-19T03:06:47;20.54;80.29
68189;DHT22;66299;47.514;19.218;2023-09-19T03:09:18;20.51;80.41
68189;DHT22;66299;47.514;19.218;2023-09-19T03:11:47;20.40;80.47
68189;DHT22;66299;47.514;19.218;2023-09-19T03:14:18;20.41;80.57
68189;DHT22;66299;47.514;19.218;2023-09-19T03:16:47;20.33;80.75
68189;DHT22;66299;47.514;19.218;2023-09-19T03:19:16;20.26;80.91
68189;DHT22;66299;47.514;19.218;2023-09-19T03:21:46;20.22;81.13
68189;DHT22;66299;47.514;19.218;2023-09-19T03:24:17;20.20;81.17
68189;DHT22;66299;47.514;19.218;2023-09-19T03:26:46;20.16;81.26
68189;DHT22;66299;47.514;19.218;2023-09-19T03:29:16;20.09;81.69
68189;DHT22;66299;47.514;19.218;2023-09-19T03:31:47;20.02;81.81
68189;DHT22;66299;47.514;19.218;2023-09-19T03:34:18;19.99;82.14
68189;DHT22;66299;47.514;19.218;2023-09-19T03:36:49;19.96;82.20
68189;DHT22;66299;47.514;19.218;2023-09-19T03:39:20;19.95;82.49
68189;DHT22;66299;47.514;19.218;2023-09-19T03:41:49;19.78;82.88
68189;DHT22;66299;47.514;19.218;2023-09-19T03:44:18;19.78;82.99
68189;DHT22;66299;47.514;19.218;2023-09-19T03:46:47;19.83;82.84
68189;DHT22;66299;47.514;19.218;2023-09-19T03:49:17;19.83;82.99
68189;DHT22;66299;47.514;19.218;2023-09-19T03:51:47;19.86;83.10
68189;DHT22;66299;47.514;19.218;2023-09-19T03:54:18;19.90;82.97
68189;DHT22;66299;47.514;19.218;2023-09-19T03:56:47;19.89;83.02
68189;DHT22;66299;47.514;19.218;2023-09-19T03:59:15;19.92;82.91
68189;DHT22;66299;47.514;19.218;2023-09-19T04:01:45;20.00;82.77
68189;DHT22;66299;47.514;19.218;2023-09-19T04:04:14;19.99;82.73
68189;DHT22;66299;47.514;19.218;2023-09-19T04:06:43;19.99;82.97
68189;DHT22;66299;47.514;19.218;2023-09-19T04:09:15;19.86;83.24
68189;DHT22;66299;47.514;19.218;2023-09-19T04:11:47;19.86;83.34
68189;DHT22;66299;47.514;19.218;2023-09-19T04:14:17;19.83;83.65
68189;DHT22;66299;47.514;19.218;2023-09-19T04:16:47;19.75;83.95
68189;DHT22;66299;47.514;19.218;2023-09-19T04:19:16;19.82;83.89
68189;DHT22;66299;47.514;19.218;2023-09-19T04:21:45;19.78;84.07
68189;DHT22;66299;47.514;19.218;2023-09-19T04:24:15;19.78;84.31
68189;DHT22;66299;47.514;19.218;2023-09-19T04:26:46;19.81;84.18
68189;DHT22;66299;47.514;19.218;2023-09-19T04:29:17;19.93;83.55
68189;DHT22;66299;47.514;19.218;2023-09-19T04:31:47;19.92;83.80
68189;DHT22;66299;47.514;19.218;2023-09-19T04:34:17;19.97;83.67
68189;DHT22;66299;47.514;19.218;2023-09-19T04:36:49;19.99;83.85
68189;DHT22;66299;47.514;19.218;2023-09-19T04:39:18;20.04;83.92
68189;DHT22;66299;47.514;19.218;2023-09-19T04:41:48;20.00;83.88
68189;DHT22;66299;47.514;19.218;2023-09-19T04:44:20;20.04;84.01
68189;DHT22;66299;47.514;19.218;2023-09-19T04:46:49;20.09;83.98
68189;DHT22;66299;47.514;19.218;2023-09-19T04:49:18;20.12;84.03
68189;DHT22;66299;47.514;19.218;2023-09-19T04:51:48;20.13;84.11
68189;DHT22;66299;47.514;19.218;2023-09-19T04:54:17;20.16;84.23
68189;DHT22;66299;47.514;19.218;2023-09-19T04:56:46;20.20;84.58
68189;DHT22;66299;47.514;19.218;2023-09-19T04:59:14;20.36;83.74
68189;DHT22;66299;47.514;19.218;2023-09-19T05:01:48;20.44;83.55
68189;DHT22;66299;47.514;19.218;2023-09-19T05:04:16;20.48;83.49
68189;DHT22;66299;47.514;19.218;2023-09-19T05:06:45;20.48;83.54
68189;DHT22;66299;47.514;19.218;2023-09-19T05:09:16;20.63;82.56
68189;DHT22;66299;47.514;19.218;2023-09-19T05:11:48;20.77;81.97
68189;DHT22;66299;47.514;19.218;2023-09-19T05:14:18;20.80;81.79
68189;DHT22;66299;47.514;19.218;2023-09-19T05:16:49;20.75;82.13
68189;DHT22;66299;47.514;19.218;2023-09-19T05:19:20;20.74;82.07
68189;DHT22;66299;47.514;19.218;2023-09-19T05:21:52;20.75;81.40
68189;DHT22;66299;47.514;19.218;2023-09-19T05:24:22;20.75;81.16
68189;DHT22;66299;47.514;19.218;2023-09-19T05:26:53;20.81;81.12
68189;DHT22;66299;47.514;19.218;2023-09-19T05:29:23;20.75;81.47
68189;DHT22;66299;47.514;19.218;2023-09-19T05:31:53;20.63;81.85
68189;DHT22;66299;47.514;19.218;2023-09-19T05:34:24;20.54;82.19
68189;DHT22;66299;47.514;19.218;2023-09-19T05:36:57;20.29;82.85
68189;DHT22;66299;47.514;19.218;2023-09-19T05:39:30;20.22;83.41
68189;DHT22;66299;47.514;19.218;2023-09-19T05:41:59;20.12;83.87
68189;DHT22;66299;47.514;19.218;2023-09-19T05:44:30;19.89;84.52
68189;DHT22;66299;47.514;19.218;2023-09-19T05:47:02;19.83;85.36
68189;DHT22;66299;47.514;19.218;2023-09-19T05:49:31;19.59;85.94
68189;DHT22;66299;47.514;19.218;2023-09-19T05:52:01;19.53;86.29
68189;DHT22;66299;47.514;19.218;2023-09-19T05:54:30;19.55;86.20
68189;DHT22;66299;47.514;19.218;2023-09-19T05:56:59;19.55;86.21
68189;DHT22;66299;47.514;19.218;2023-09-19T05:59:29;19.50;86.45
68189;DHT22;66299;47.514;19.218;2023-09-19T06:02:02;19.53;86.44
68189;DHT22;66299;47.514;19.218;2023-09-19T06:04:34;19.48;86.63
68189;DHT22;66299;47.514;19.218;2023-09-19T06:07:04;19.48;86.08
68189;DHT22;66299;47.514;19.218;2023-09-19T06:09:33;19.32;86.40
68189;DHT22;66299;47.514;19.218;2023-09-19T06:12:03;19.34;86.65
68189;DHT22;66299;47.514;19.218;2023-09-19T06:14:33;19.24;86.87
68189;DHT22;66299;47.514;19.218;2023-09-19T06:17:05;19.04;87.14
68189;DHT22;66299;47.514;19.218;2023-09-19T06:19:34;19.09;86.92
68189;DHT22;66299;47.514;19.218;2023-09-19T06:22:04;19.02;86.99
68189;DHT22;66299;47.514;19.218;2023-09-19T06:24:35;18.93;87.30
68189;DHT22;66299;47.514;19.218;2023-09-19T06:27:04;19.02;87.04
68189;DHT22;66299;47.514;19.218;2023-09-19T06:29:36;18.92;87.40
68189;DHT22;66299;47.514;19.218;2023-09-19T06:32:09;18.86;87.66
68189;DHT22;66299;47.514;19.218;2023-09-19T06:34:38;18.79;87.80
68189;DHT22;66299;47.514;19.218;2023-09-19T06:37:11;18.80;88.04
68189;DHT22;66299;47.514;19.218;2023-09-19T06:39:39;18.56;88.81
68189;DHT22;66299;47.514;19.218;2023-09-19T06:42:09;18.51;89.19
68189;DHT22;66299;47.514;19.218;2023-09-19T06:44:39;18.45;89.50
68189;DHT22;66299;47.514;19.218;2023-09-19T06:47:09;18.35;89.86
68189;DHT22;66299;47.514;19.218;2023-09-19T06:49:39;18.37;89.96
68189;DHT22;66299;47.514;19.218;2023-09-19T06:52:09;18.30;90.25
68189;DHT22;66299;47.514;19.218;2023-09-19T06:54:39;18.28;90.49
68189;DHT22;66299;47.514;19.218;2023-09-19T06:57:10;18.20;91.45
68189;DHT22;66299;47.514;19.218;2023-09-19T06:59:43;18.05;91.73
68189;DHT22;66299;47.514;19.218;2023-09-19T07:02:17;18.04;92.66
68189;DHT22;66299;47.514;19.218;2023-09-19T07:04:47;17.89;92.71
68189;DHT22;66299;47.514;19.218;2023-09-19T07:07:16;17.82;93.07
68189;DHT22;66299;47.514;19.218;2023-09-19T07:09:46;17.75;93.58
68189;DHT22;66299;47.514;19.218;2023-09-19T07:12:18;17.75;93.99
68189;DHT22;66299;47.514;19.218;2023-09-19T07:14:47;17.65;94.67
68189;DHT22;66299;47.514;19.218;2023-09-19T07:17:18;17.57;95.67
68189;DHT22;66299;47.514;19.218;2023-09-19T07:19:47;17.57;96.58
68189;DHT22;66299;47.514;19.218;2023-09-19T07:22:16;17.55;97.26
68189;DHT22;66299;47.514;19.218;2023-09-19T07:24:45;17.53;97.13
68189;DHT22;66299;47.514;19.218;2023-09-19T07:27:15;17.45;97.79
68189;DHT22;66299;47.514;19.218;2023-09-19T07:29:47;17.50;97.08
68189;DHT22;66299;47.514;19.218;2023-09-19T07:32:22;17.56;97.87
68189;DHT22;66299;47.514;19.218;2023-09-19T07:34:51;17.62;96.92
68189;DHT22;66299;47.514;19.218;2023-09-19T07:37:21;17.66;97.92
68189;DHT22;66299;47.514;19.218;2023-09-19T07:39:53;17.61;97.01
68189;DHT22;66299;47.514;19.218;2023-09-19T07:42:23;17.67;97.08
68189;DHT22;66299;47.514;19.218;2023-09-19T07:44:52;17.59;97.36
68189;DHT22;66299;47.514;19.218;2023-09-19T07:47:23;17.59;98.02
68189;DHT22;66299;47.514;19.218;2023-09-19T07:49:52;17.52;97.84
68189;DHT22;66299;47.514;19.218;2023-09-19T07:52:23;17.55;98.09
68189;DHT22;66299;47.514;19.218;2023-09-19T07:54:53;17.46;98.09
68189;DHT22;66299;47.514;19.218;2023-09-19T07:57:24;17.48;98.92
68189;DHT22;66299;47.514;19.218;2023-09-19T07:59:54;17.46;98.46
68189;DHT22;66299;47.514;19.218;2023-09-19T08:02:25;17.43;98.22
68189;DHT22;66299;47.514;19.218;2023-09-19T08:04:55;17.45;98.28
68189;DHT22;66299;47.514;19.218;2023-09-19T08:07:26;17.36;98.25
68189;DHT22;66299;47.514;19.218;2023-09-19T08:09:56;17.39;99.10
68189;DHT22;66299;47.514;19.218;2023-09-19T08:12:25;17.61;98.88
68189;DHT22;66299;47.514;19.218;2023-09-19T08:14:56;17.69;98.81
68189;DHT22;66299;47.514;19.218;2023-09-19T08:17:27;17.96;98.87
68189;DHT22;66299;47.514;19.218;2023-09-19T08:19:55;17.96;97.92
68189;DHT22;66299;47.514;19.218;2023-09-19T08:22:25;17.87;97.93
68189;DHT22;66299;47.514;19.218;2023-09-19T08:24:54;18.04;98.94
68189;DHT22;66299;47.514;19.218;2023-09-19T08:27:23;17.93;97.85
68189;DHT22;66299;47.514;19.218;2023-09-19T08:29:53;18.00;98.00
68189;DHT22;66299;47.514;19.218;2023-09-19T08:32:28;18.11;98.44
68189;DHT22;66299;47.514;19.218;2023-09-19T08:35:00;18.11;97.90
68189;DHT22;66299;47.514;19.218;2023-09-19T08:37:34;17.90;98.35
68189;DHT22;66299;47.514;19.218;2023-09-19T08:40:06;17.91;97.46
68189;DHT22;66299;47.514;19.218;2023-09-19T08:42:50;18.05;97.85
68189;DHT22;66299;47.514;19.218;2023-09-19T08:45:20;17.91;97.48
68189;DHT22;66299;47.514;19.218;2023-09-19T08:47:58;17.87;97.68
68189;DHT22;66299;47.514;19.218;2023-09-19T08:50:30;17.91;97.62
68189;DHT22;66299;47.514;19.218;2023-09-19T08:53:01;17.87;97.12
68189;DHT22;66299;47.514;19.218;2023-09-19T08:55:34;17.90;96.92
68189;DHT22;66299;47.514;19.218;2023-09-19T08:58:06;17.98;97.13
68189;DHT22;66299;47.514;19.218;2023-09-19T09:00:40;17.91;97.99
68189;DHT22;66299;47.514;19.218;2023-09-19T09:03:11;17.84;97.15
68189;DHT22;66299;47.514;19.218;2023-09-19T09:05:43;17.80;97.58
68189;DHT22;66299;47.514;19.218;2023-09-19T09:08:14;17.75;98.22
68189;DHT22;66299;47.514;19.218;2023-09-19T09:10:44;17.90;97.73
68189;DHT22;66299;47.514;19.218;2023-09-19T09:13:14;17.83;97.49
68189;DHT22;66299;47.514;19.218;2023-09-19T09:15:43;17.86;98.28
68189;DHT22;66299;47.514;19.218;2023-09-19T09:18:15;18.01;97.89
68189;DHT22;66299;47.514;19.218;2023-09-19T09:20:44;18.13;97.24
68189;DHT22;66299;47.514;19.218;2023-09-19T09:23:13;18.18;97.42
68189;DHT22;66299;47.514;19.218;2023-09-19T09:25:53;18.35;96.07
68189;DHT22;66299;47.514;19.218;2023-09-19T09:28:25;18.55;96.45
68189;DHT22;66299;47.514;19.218;2023-09-19T09:30:55;18.56;95.87
68189;DHT22;66299;47.514;19.218;2023-09-19T09:33:27;18.73;94.94
68189;DHT22;66299;47.514;19.218;2023-09-19T09:35:57;18.66;94.77
68189;DHT22;66299;47.514;19.218;2023-09-19T09:38:28;18.73;95.23
68189;DHT22;66299;47.514;19.218;2023-09-19T09:41:00;18.83;94.19
68189;DHT22;66299;47.514;19.218;2023-09-19T09:43:35;18.96;94.19
68189;DHT22;66299;47.514;19.218;2023-09-19T09:46:12;19.14;93.83
68189;DHT22;66299;47.514;19.218;2023-09-19T09:48:59;19.37;94.26
68189;DHT22;66299;47.514;19.218;2023-09-19T09:51:44;19.04;93.95
68189;DHT22;66299;47.514;19.218;2023-09-19T09:54:25;18.73;96.46
68189;DHT22;66299;47.514;19.218;2023-09-19T09:57:02;18.93;96.36
68189;DHT22;66299;47.514;19.218;2023-09-19T09:59:49;19.13;96.96
68189;DHT22;66299;47.514;19.218;2023-09-19T10:02:26;18.92;95.94
68189;DHT22;66299;47.514;19.218;2023-09-19T10:05:11;18.88;96.19
68189;DHT22;66299;47.514;19.218;2023-09-19T10:07:48;19.16;96.75
68189;DHT22;66299;47.514;19.218;2023-09-19T10:10:31;19.07;96.45
68189;DHT22;66299;47.514;19.218;2023-09-19T10:13:13;18.82;96.07
68189;DHT22;66299;47.514;19.218;2023-09-19T10:15:48;18.83;95.49
68189;DHT22;66299;47.514;19.218;2023-09-19T10:18:21;19.09;94.57
68189;DHT22;66299;47.514;19.218;2023-09-19T10:20:53;19.06;93.91
68189;DHT22;66299;47.514;19.218;2023-09-19T10:23:27;19.17;94.40
68189;DHT22;66299;47.514;19.218;2023-09-19T10:25:58;19.00;94.75
68189;DHT22;66299;47.514;19.218;2023-09-19T10:28:29;19.14;93.37
68189;DHT22;66299;47.514;19.218;2023-09-19T10:31:00;19.24;93.85
68189;DHT22;66299;47.514;19.218;2023-09-19T10:33:36;19.38;93.81
68189;DHT22;66299;47.514;19.218;2023-09-19T10:36:09;19.32;94.04
68189;DHT22;66299;47.514;19.218;2023-09-19T10:38:39;19.48;92.29
68189;DHT22;66299;47.514;19.218;2023-09-19T10:41:11;19.59;93.51
68189;DHT22;66299;47.514;19.218;2023-09-19T10:43:43;19.41;93.15
68189;DHT22;66299;47.514;19.218;2023-09-19T10:46:14;19.38;92.07
68189;DHT22;66299;47.514;19.218;2023-09-19T10:48:45;19.59;92.60
68189;DHT22;66299;47.514;19.218;2023-09-19T10:51:20;19.38;91.80
68189;DHT22;66299;47.514;19.218;2023-09-19T10:53:54;19.65;92.36
68189;DHT22;66299;47.514;19.218;2023-09-19T10:56:26;19.53;90.80
68189;DHT22;66299;47.514;19.218;2023-09-19T10:59:07;19.44;91.32
68189;DHT22;66299;47.514;19.218;2023-09-19T11:01:45;19.50;90.98
68189;DHT22;66299;47.514;19.218;2023-09-19T11:04:24;19.44;90.17
68189;DHT22;66299;47.514;19.218;2023-09-19T11:07:06;19.57;90.80
68189;DHT22;66299;47.514;19.218;2023-09-19T11:09:44;19.77;90.43
68189;DHT22;66299;47.514;19.218;2023-09-19T11:12:49;19.96;89.11
68189;DHT22;66299;47.514;19.218;2023-09-19T11:18:52;20.16;88.89
68189;DHT22;66299;47.514;19.218;2023-09-19T11:21:55;20.29;88.39
68189;DHT22;66299;47.514;19.218;2023-09-19T11:24:30;20.37;87.62
68189;DHT22;66299;47.514;19.218;2023-09-19T11:27:11;20.29;86.56
68189;DHT22;66299;47.514;19.218;2023-09-19T11:29:41;20.54;86.50
68189;DHT22;66299;47.514;19.218;2023-09-19T11:32:10;20.78;85.53
68189;DHT22;66299;47.514;19.218;2023-09-19T11:34:43;20.74;84.78
68189;DHT22;66299;47.514;19.218;2023-09-19T11:46:59;21.29;80.99
68189;DHT22;66299;47.514;19.218;2023-09-19T11:49:31;21.74;78.95
68189;DHT22;66299;47.514;19.218;2023-09-19T11:52:02;21.74;79.69
68189;DHT22;66299;47.514;19.218;2023-09-19T11:54:35;21.40;78.41
68189;DHT22;66299;47.514;19.218;2023-09-19T11:57:11;21.66;78.29
68189;DHT22;66299;47.514;19.218;2023-09-19T11:59:41;21.16;78.68
68189;DHT22;66299;47.514;19.218;2023-09-19T12:02:19;21.12;79.91
68189;DHT22;66299;47.514;19.218;2023-09-19T12:04:56;21.19;79.69
68189;DHT22;66299;47.514;19.218;2023-09-19T12:07:27;21.38;80.29
68189;DHT22;66299;47.514;19.218;2023-09-19T12:10:04;21.61;78.90
68189;DHT22;66299;47.514;19.218;2023-09-19T12:12:35;21.94;78.30
68189;DHT22;66299;47.514;19.218;2023-09-19T12:15:07;22.32;77.19
68189;DHT22;66299;47.514;19.218;2023-09-19T12:17:36;22.14;77.83
68189;DHT22;66299;47.514;19.218;2023-09-19T12:20:08;21.73;77.47
68189;DHT22;66299;47.514;19.218;2023-09-19T12:22:41;21.81;78.40
68189;DHT22;66299;47.514;19.218;2023-09-19T12:25:12;22.57;75.59
68189;DHT22;66299;47.514;19.218;2023-09-19T12:27:45;22.53;75.46
68189;DHT22;66299;47.514;19.218;2023-09-19T12:30:16;22.90;75.03
68189;DHT22;66299;47.514;19.218;2023-09-19T12:32:54;24.30;71.05
68189;DHT22;66299;47.514;19.218;2023-09-19T12:35:29;23.06;75.07
68189;DHT22;66299;47.514;19.218;2023-09-19T12:37:59;23.55;72.13
68189;DHT22;66299;47.514;19.218;2023-09-19T12:40:28;24.86;69.34
68189;DHT22;66299;47.514;19.218;2023-09-19T12:42:59;24.69;68.81
68189;DHT22;66299;47.514;19.218;2023-09-19T12:45:29;23.37;72.67
68189;DHT22;66299;47.514;19.218;2023-09-19T12:48:17;22.96;74.30
68189;DHT22;66299;47.514;19.218;2023-09-19T12:51:04;22.52;76.11
68189;DHT22;66299;47.514;19.218;2023-09-19T12:53:35;22.69;76.40
68189;DHT22;66299;47.514;19.218;2023-09-19T12:56:10;22.44;77.77
68189;DHT22;66299;47.514;19.218;2023-09-19T12:58:55;21.94;77.14
68189;DHT22;66299;47.514;19.218;2023-09-19T13:01:27;21.43;78.60
68189;DHT22;66299;47.514;19.218;2023-09-19T13:04:13;21.50;77.60
68189;DHT22;66299;47.514;19.218;2023-09-19T13:06:46;21.25;79.58
68189;DHT22;66299;47.514;19.218;2023-09-19T13:09:17;21.80;77.77
68189;DHT22;66299;47.514;19.218;2023-09-19T13:11:48;22.31;77.11
68189;DHT22;66299;47.514;19.218;2023-09-19T13:14:21;22.21;75.44
68189;DHT22;66299;47.514;19.218;2023-09-19T13:17:02;22.56;75.15
68189;DHT22;66299;47.514;19.218;2023-09-19T13:19:39;22.80;73.84
68189;DHT22;66299;47.514;19.218;2023-09-19T13:22:37;22.69;73.66
68189;DHT22;66299;47.514;19.218;2023-09-19T13:25:08;22.59;74.06
68189;DHT22;66299;47.514;19.218;2023-09-19T13:27:42;22.90;73.82
68189;DHT22;66299;47.514;19.218;2023-09-19T13:30:13;22.79;73.62
68189;DHT22;66299;47.514;19.218;2023-09-19T13:32:41;23.03;72.11
68189;DHT22;66299;47.514;19.218;2023-09-19T13:35:11;22.76;73.36
68189;DHT22;66299;47.514;19.218;2023-09-19T13:37:40;22.84;73.55
68189;DHT22;66299;47.514;19.218;2023-09-19T13:40:11;22.77;74.64
68189;DHT22;66299;47.514;19.218;2023-09-19T13:42:41;22.96;73.08
68189;DHT22;66299;47.514;19.218;2023-09-19T13:45:09;22.99;73.97
68189;DHT22;66299;47.514;19.218;2023-09-19T13:47:45;23.06;73.70
68189;DHT22;66299;47.514;19.218;2023-09-19T13:50:14;22.84;73.76
68189;DHT22;66299;47.514;19.218;2023-09-19T13:52:44;23.30;72.97
68189;DHT22;66299;47.514;19.218;2023-09-19T13:55:15;22.89;73.27
68189;DHT22;66299;47.514;19.218;2023-09-19T13:57:47;22.99;73.20
68189;DHT22;66299;47.514;19.218;2023-09-19T14:00:17;22.87;74.00
68189;DHT22;66299;47.514;19.218;2023-09-19T14:02:47;22.67;74.04
68189;DHT22;66299;47.514;19.218;2023-09-19T14:05:18;23.06;73.05
68189;DHT22;66299;47.514;19.218;2023-09-19T14:07:48;22.97;73.15
68189;DHT22;66299;47.514;19.218;2023-09-19T14:10:18;22.52;73.71
68189;DHT22;66299;47.514;19.218;2023-09-19T14:12:46;22.27;74.23
68189;DHT22;66299;47.514;19.218;2023-09-19T14:15:15;22.07;74.92
68189;DHT22;66299;47.514;19.218;2023-09-19T14:17:44;21.86;76.09
68189;DHT22;66299;47.514;19.218;2023-09-19T14:20:15;21.78;76.06
68189;DHT22;66299;47.514;19.218;2023-09-19T14:22:44;21.93;75.75
68189;DHT22;66299;47.514;19.218;2023-09-19T14:25:12;22.36;74.42
68189;DHT22;66299;47.514;19.218;2023-09-19T14:27:41;22.52;73.41
68189;DHT22;66299;47.514;19.218;2023-09-19T14:30:11;22.45;73.94
68189;DHT22;66299;47.514;19.218;2023-09-19T14:32:40;22.66;73.57
68189;DHT22;66299;47.514;19.218;2023-09-19T14:35:09;22.70;73.35
68189;DHT22;66299;47.514;19.218;2023-09-19T14:37:41;22.59;73.69
68189;DHT22;66299;47.514;19.218;2023-09-19T14:40:09;22.80;73.21
68189;DHT22;66299;47.514;19.218;2023-09-19T14:42:40;22.65;73.49
68189;DHT22;66299;47.514;19.218;2023-09-19T14:45:14;22.49;74.29
68189;DHT22;66299;47.514;19.218;2023-09-19T14:47:46;22.65;74.10
68189;DHT22;66299;47.514;19.218;2023-09-19T14:50:18;22.89;73.79
68189;DHT22;66299;47.514;19.218;2023-09-19T14:52:48;22.76;73.63
68189;DHT22;66299;47.514;19.218;2023-09-19T14:55:17;22.69;74.01
68189;DHT22;66299;47.514;19.218;2023-09-19T14:57:49;22.66;74.08
68189;DHT22;66299;47.514;19.218;2023-09-19T15:00:18;22.67;73.69
68189;DHT22;66299;47.514;19.218;2023-09-19T15:02:48;22.66;73.82
68189;DHT22;66299;47.514;19.218;2023-09-19T15:05:17;22.69;73.52
68189;DHT22;66299;47.514;19.218;2023-09-19T15:07:49;22.63;74.23
68189;DHT22;66299;47.514;19.218;2023-09-19T15:10:18;22.60;74.10
68189;DHT22;66299;47.514;19.218;2023-09-19T15:12:51;22.55;73.34
68189;DHT22;66299;47.514;19.218;2023-09-19T15:15:21;22.46;73.13
68189;DHT22;66299;47.514;19.218;2023-09-19T15:17:52;22.48;72.90
68189;DHT22;66299;47.514;19.218;2023-09-19T15:20:21;22.41;73.01
68189;DHT22;66299;47.514;19.218;2023-09-19T15:22:54;22.36;74.80
68189;DHT22;66299;47.514;19.218;2023-09-19T15:25:23;22.35;72.83
68189;DHT22;66299;47.514;19.218;2023-09-19T15:27:54;22.28;73.67
68189;DHT22;66299;47.514;19.218;2023-09-19T15:30:26;22.31;73.79
68189;DHT22;66299;47.514;19.218;2023-09-19T15:32:55;22.31;72.91
68189;DHT22;66299;47.514;19.218;2023-09-19T15:35:24;22.35;72.50
68189;DHT22;66299;47.514;19.218;2023-09-19T15:37:55;22.28;72.55
68189;DHT22;66299;47.514;19.218;2023-09-19T15:40:26;22.15;73.66
68189;DHT22;66299;47.514;19.218;2023-09-19T15:42:56;22.14;73.37
68189;DHT22;66299;47.514;19.218;2023-09-19T15:45:24;22.08;74.25
68189;DHT22;66299;47.514;19.218;2023-09-19T15:47:54;21.98;74.40
68189;DHT22;66299;47.514;19.218;2023-09-19T15:50:24;21.90;75.21
68189;DHT22;66299;47.514;19.218;2023-09-19T15:52:55;21.88;75.27
68189;DHT22;66299;47.514;19.218;2023-09-19T15:55:26;21.84;74.54
68189;DHT22;66299;47.514;19.218;2023-09-19T15:57:54;22.01;73.14
68189;DHT22;66299;47.514;19.218;2023-09-19T16:00:26;22.01;72.83